Time;durP1;ratioP1;P1;durP2;ratioP2;P2;SDS_P1;SDS_P2;PMS_P1;PMS_P2;Temp;Humidity;BMP_temperature;BMP_pressure;BME280_temperature;BME280_humidity;BME280_pressure;Samples;Min_cycle;Max_cycle;Signal;HPM_P1;HPM_P2
2022/11/28 00:01:04;;;;;;;6.97;3.30;;;;;;;;;;5065423;28;20035;-81
2022/11/28 00:03:30;;;;;;;8.55;3.67;;;;;;;;;;5083928;28;20021;-81
2022/11/28 00:05:56;;;;;;;6.78;2.90;;;;;;;;;;5095268;28;20009;-81
2022/11/28 00:08:22;;;;;;;13.10;3.00;;;;;;;;;;5067410;28;20024;-81
2022/11/28 00:10:48;;;;;;;8.82;3.42;;;;;;;;;;5078482;28;20036;-80
2022/11/28 00:13:15;;;;;;;11.55;3.38;;;;;;;;;;5085513;28;20330;-80
2022/11/28 00:15:41;;;;;;;9.13;3.72;;;;;;;;;;5095146;28;20043;-80
2022/11/28 00:18:10;;;;;;;10.15;4.03;;;;;;;;;;5086927;28;20044;-81
2022/11/28 00:20:36;;;;;;;8.90;4.13;;;;;;;;;;5076928;28;20025;-80
2022/11/28 00:23:02;;;;;;;10.48;4.03;;;;;;;;;;5076579;28;20466;-80
2022/11/28 00:25:28;;;;;;;7.40;3.15;;;;;;;;;;5079979;28;20135;-79
2022/11/28 00:27:54;;;;;;;12.10;4.05;;;;;;;;;;5088708;28;20025;-80
2022/11/28 00:30:20;;;;;;;11.88;3.20;;;;;;;;;;5079461;28;20028;-80
2022/11/28 00:32:46;;;;;;;8.30;3.40;;;;;;;;;;5081896;28;20449;-80
2022/11/28 00:35:12;;;;;;;8.80;3.22;;;;;;;;;;5080092;28;20032;-80
2022/11/28 00:37:39;;;;;;;8.77;3.65;;;;;;;;;;5079388;28;20051;-80
2022/11/28 00:40:05;;;;;;;8.75;2.85;;;;;;;;;;5080020;28;20497;-81
2022/11/28 00:42:32;;;;;;;12.18;3.42;;;;;;;;;;5061333;28;20086;-80
2022/11/28 00:44:58;;;;;;;7.45;3.08;;;;;;;;;;5085593;28;20056;-82
2022/11/28 00:47:24;;;;;;;13.70;4.35;;;;;;;;;;5078847;28;20557;-80
2022/11/28 00:49:52;;;;;;;9.02;2.97;;;;;;;;;;5079811;28;20085;-81
2022/11/28 00:52:18;;;;;;;17.50;4.55;;;;;;;;;;5081327;28;20109;-81
2022/11/28 00:54:44;;;;;;;9.88;3.30;;;;;;;;;;5079341;28;20024;-82
2022/11/28 00:57:10;;;;;;;9.85;2.92;;;;;;;;;;5064347;28;20356;-80
2022/11/28 00:59:37;;;;;;;4.80;2.40;;;;;;;;;;5076633;28;20025;-81
2022/11/28 01:02:03;;;;;;;10.35;2.95;;;;;;;;;;5081729;28;20017;-82
2022/11/28 01:04:29;;;;;;;9.23;2.72;;;;;;;;;;5067600;28;20032;-80
2022/11/28 01:06:56;;;;;;;7.55;3.25;;;;;;;;;;5060364;28;20023;-80
2022/11/28 01:09:23;;;;;;;11.38;3.65;;;;;;;;;;5079971;28;20025;-81
2022/11/28 01:11:51;;;;;;;5.07;2.10;;;;;;;;;;5081170;28;20487;-80
2022/11/28 01:14:18;;;;;;;7.05;2.47;;;;;;;;;;5086352;28;20016;-81
2022/11/28 01:16:44;;;;;;;6.78;2.25;;;;;;;;;;5064717;28;20052;-80
2022/11/28 01:19:11;;;;;;;7.05;2.90;;;;;;;;;;5087689;28;20021;-81
2022/11/28 01:21:37;;;;;;;7.43;2.95;;;;;;;;;;5057279;28;20111;-80
2022/11/28 01:24:03;;;;;;;8.10;2.58;;;;;;;;;;5079633;28;20019;-79
2022/11/28 01:26:29;;;;;;;5.28;2.03;;;;;;;;;;5082052;28;20027;-80
2022/11/28 01:28:55;;;;;;;10.25;2.88;;;;;;;;;;5081500;28;20378;-80
2022/11/28 01:31:23;;;;;;;6.90;2.58;;;;;;;;;;5080051;28;20024;-80
2022/11/28 01:33:49;;;;;;;8.18;2.80;;;;;;;;;;5093805;28;20020;-80
2022/11/28 01:36:16;;;;;;;14.60;3.05;;;;;;;;;;5069452;28;20021;-80
2022/11/28 01:38:42;;;;;;;10.05;2.72;;;;;;;;;;5069757;28;20025;-79
2022/11/28 01:41:09;;;;;;;9.75;3.08;;;;;;;;;;5061599;28;20076;-80
2022/11/28 01:43:36;;;;;;;9.65;2.38;;;;;;;;;;5068423;28;20032;-79
2022/11/28 01:46:02;;;;;;;14.52;3.55;;;;;;;;;;5077224;28;20038;-80
2022/11/28 01:48:33;;;;;;;13.30;4.68;;;;;;;;;;5080143;28;20058;-80
2022/11/28 01:51:01;;;;;;;10.10;3.20;;;;;;;;;;5081742;28;20035;-80
2022/11/28 01:53:32;;;;;;;11.63;3.15;;;;;;;;;;5075214;28;20028;-80
2022/11/28 01:56:04;;;;;;;12.98;3.30;;;;;;;;;;5077911;28;20469;-80
2022/11/28 01:58:32;;;;;;;12.43;3.13;;;;;;;;;;5076180;28;20449;-81
2022/11/28 02:00:58;;;;;;;16.08;3.90;;;;;;;;;;5086066;28;20119;-80
2022/11/28 02:03:30;;;;;;;18.50;3.67;;;;;;;;;;5071285;28;20035;-80
2022/11/28 02:05:56;;;;;;;10.40;3.05;;;;;;;;;;5085307;28;20035;-80
2022/11/28 02:08:23;;;;;;;12.38;3.78;;;;;;;;;;5079925;28;20486;-80
2022/11/28 02:11:02;;;;;;;9.85;2.70;;;;;;;;;;5078882;28;20031;-80
2022/11/28 02:13:46;;;;;;;7.43;3.10;;;;;;;;;;5079656;28;20445;-81
2022/11/28 02:16:21;;;;;;;15.90;3.08;;;;;;;;;;5079816;28;20035;-81
2022/11/28 02:19:09;;;;;;;13.35;3.50;;;;;;;;;;5080529;28;20087;-81
2022/11/28 02:21:43;;;;;;;6.20;2.80;;;;;;;;;;5083647;28;20051;-82
2022/11/28 02:24:27;;;;;;;9.88;2.78;;;;;;;;;;5084795;28;20025;-80
2022/11/28 02:27:11;;;;;;;12.48;3.13;;;;;;;;;;5071965;28;20028;-80
2022/11/28 02:29:55;;;;;;;15.45;3.40;;;;;;;;;;5064917;28;20078;-81
2022/11/28 02:32:29;;;;;;;12.52;3.53;;;;;;;;;;5084258;28;20606;-81
2022/11/28 02:35:14;;;;;;;15.38;4.35;;;;;;;;;;5078493;28;20039;-81
2022/11/28 02:37:40;;;;;;;9.68;2.55;;;;;;;;;;5076501;28;20059;-81
2022/11/28 02:40:06;;;;;;;15.23;3.53;;;;;;;;;;5059827;28;20032;-81
2022/11/28 02:42:50;;;;;;;13.10;3.25;;;;;;;;;;5073797;28;20033;-80
2022/11/28 02:45:16;;;;;;;11.05;4.15;;;;;;;;;;5075237;28;20112;-80
2022/11/28 02:47:50;;;;;;;7.13;2.60;;;;;;;;;;5079152;28;20020;-81
2022/11/28 02:50:24;;;;;;;10.27;3.45;;;;;;;;;;5075432;28;20051;-83
2022/11/28 02:52:56;;;;;;;7.78;3.70;;;;;;;;;;5081850;28;20038;-81
2022/11/28 02:55:23;;;;;;;12.38;2.97;;;;;;;;;;5070983;28;20024;-81
2022/11/28 02:57:51;;;;;;;8.45;2.97;;;;;;;;;;5082391;28;20030;-80
2022/11/28 03:00:25;;;;;;;11.20;2.78;;;;;;;;;;5078191;28;20036;-81
2022/11/28 03:02:58;;;;;;;9.90;3.30;;;;;;;;;;5055740;28;20020;-81
2022/11/28 03:05:30;;;;;;;9.48;3.17;;;;;;;;;;5077804;28;20033;-81
2022/11/28 03:08:15;;;;;;;7.53;3.03;;;;;;;;;;5062284;28;20012;-78
2022/11/28 03:10:53;;;;;;;16.70;3.08;;;;;;;;;;5075728;28;20033;-81
2022/11/28 03:13:37;;;;;;;14.85;4.30;;;;;;;;;;5086142;28;20157;-81
2022/11/28 03:16:13;;;;;;;13.35;5.00;;;;;;;;;;5061063;28;20020;-81
2022/11/28 03:18:41;;;;;;;8.07;2.60;;;;;;;;;;5068825;28;20389;-81
2022/11/28 03:21:14;;;;;;;10.82;2.70;;;;;;;;;;5082792;28;20039;-80
2022/11/28 03:23:49;;;;;;;12.35;3.10;;;;;;;;;;5078508;28;20025;-80
2022/11/28 03:26:18;;;;;;;15.25;3.13;;;;;;;;;;5092594;28;20037;-80
2022/11/28 03:28:48;;;;;;;9.63;3.13;;;;;;;;;;5062549;28;20020;-81
2022/11/28 03:31:17;;;;;;;9.45;2.75;;;;;;;;;;5083795;28;20051;-80
2022/11/28 03:33:47;;;;;;;15.73;2.97;;;;;;;;;;5064820;28;20032;-81
2022/11/28 03:36:18;;;;;;;13.70;4.80;;;;;;;;;;5086108;28;20107;-81
2022/11/28 03:38:46;;;;;;;8.52;3.45;;;;;;;;;;5088484;28;20120;-80
2022/11/28 03:41:20;;;;;;;7.10;3.33;;;;;;;;;;5082941;28;20529;-81
2022/11/28 03:43:50;;;;;;;8.93;3.15;;;;;;;;;;5078472;28;20082;-81
2022/11/28 03:46:18;;;;;;;9.30;3.10;;;;;;;;;;5060094;28;20067;-80
2022/11/28 03:48:46;;;;;;;10.98;2.45;;;;;;;;;;5076707;28;20024;-80
2022/11/28 03:51:12;;;;;;;10.85;3.35;;;;;;;;;;5077593;28;20028;-80
2022/11/28 03:53:41;;;;;;;6.60;2.70;;;;;;;;;;5077784;28;20025;-81
2022/11/28 03:56:28;;;;;;;8.57;2.70;;;;;;;;;;5082744;28;20445;-82
2022/11/28 03:59:03;;;;;;;9.13;2.58;;;;;;;;;;5071995;28;20021;-81
2022/11/28 04:01:29;;;;;;;12.70;3.10;;;;;;;;;;5076664;28;20052;-81
2022/11/28 04:04:09;;;;;;;9.20;3.08;;;;;;;;;;5076389;28;20047;-81
2022/11/28 04:06:35;;;;;;;7.90;3.22;;;;;;;;;;5085419;28;20035;-80
2022/11/28 04:09:03;;;;;;;7.15;2.40;;;;;;;;;;5076298;28;20478;-81
2022/11/28 04:11:44;;;;;;;8.40;2.42;;;;;;;;;;5082378;28;20103;-80
2022/11/28 04:14:19;;;;;;;8.18;2.95;;;;;;;;;;5064392;28;20121;-81
2022/11/28 04:16:48;;;;;;;11.63;3.42;;;;;;;;;;5066132;28;20117;-79
2022/11/28 04:19:23;;;;;;;8.30;2.80;;;;;;;;;;5064315;28;20033;-80
2022/11/28 04:21:49;;;;;;;6.10;2.60;;;;;;;;;;5085815;28;20554;-80
2022/11/28 04:24:18;;;;;;;16.48;3.92;;;;;;;;;;5099774;28;20052;-81
2022/11/28 04:26:50;;;;;;;9.73;4.25;;;;;;;;;;5077265;28;20027;-81
2022/11/28 04:29:18;;;;;;;6.22;2.80;;;;;;;;;;5071863;28;20032;-80
2022/11/28 04:31:45;;;;;;;6.03;2.65;;;;;;;;;;5088518;28;20035;-80
2022/11/28 04:34:14;;;;;;;8.82;3.03;;;;;;;;;;5088194;28;20020;-81
2022/11/28 04:36:43;;;;;;;9.27;2.83;;;;;;;;;;5074198;28;20028;-81
2022/11/28 04:39:12;;;;;;;12.38;2.75;;;;;;;;;;5097407;28;20024;-81
2022/11/28 04:41:41;;;;;;;5.35;2.92;;;;;;;;;;5084038;28;20097;-81
2022/11/28 04:44:19;;;;;;;5.43;2.50;;;;;;;;;;5080887;28;20025;-80
2022/11/28 04:46:47;;;;;;;11.38;2.65;;;;;;;;;;5069639;28;20069;-80
2022/11/28 04:49:14;;;;;;;12.40;2.70;;;;;;;;;;5083080;28;20040;-80
2022/11/28 04:52:00;;;;;;;5.43;2.38;;;;;;;;;;5090030;28;20040;-80
2022/11/28 04:54:31;;;;;;;7.40;2.63;;;;;;;;;;5077592;28;20035;-81
2022/11/28 04:57:02;;;;;;;10.32;2.78;;;;;;;;;;5071478;28;20021;-81
2022/11/28 04:59:30;;;;;;;8.57;3.25;;;;;;;;;;5064252;28;20024;-80
2022/11/28 05:01:57;;;;;;;9.15;2.50;;;;;;;;;;5070051;28;20024;-80
2022/11/28 05:04:23;;;;;;;6.43;2.75;;;;;;;;;;5083126;28;20082;-80
2022/11/28 05:06:49;;;;;;;6.25;2.67;;;;;;;;;;5093448;28;20052;-80
2022/11/28 05:09:15;;;;;;;7.85;3.10;;;;;;;;;;5085252;28;20024;-79
2022/11/28 05:11:41;;;;;;;7.93;3.80;;;;;;;;;;5087327;28;20024;-80
2022/11/28 05:14:08;;;;;;;8.82;2.83;;;;;;;;;;5068269;28;20133;-79
2022/11/28 05:16:34;;;;;;;5.85;2.53;;;;;;;;;;5087866;28;20047;-79
2022/11/28 05:19:00;;;;;;;8.32;2.65;;;;;;;;;;5095376;28;20028;-81
2022/11/28 05:21:26;;;;;;;8.40;2.58;;;;;;;;;;5086077;28;20025;-79
2022/11/28 05:23:52;;;;;;;14.00;2.75;;;;;;;;;;5086099;28;20017;-80
2022/11/28 05:26:20;;;;;;;9.23;2.40;;;;;;;;;;5069793;28;20498;-80
2022/11/28 05:28:48;;;;;;;6.90;2.85;;;;;;;;;;5067573;28;20032;-80
2022/11/28 05:31:15;;;;;;;8.73;2.60;;;;;;;;;;5084758;28;20100;-79
2022/11/28 05:33:41;;;;;;;6.43;2.53;;;;;;;;;;5072706;28;20049;-80
2022/11/28 05:36:08;;;;;;;7.78;2.45;;;;;;;;;;5067843;28;20439;-80
2022/11/28 05:38:34;;;;;;;9.07;2.58;;;;;;;;;;5055921;28;20569;-81
2022/11/28 05:41:00;;;;;;;6.05;2.30;;;;;;;;;;5087100;28;20021;-81
2022/11/28 05:43:27;;;;;;;7.75;2.40;;;;;;;;;;5072492;28;20028;-81
2022/11/28 05:45:53;;;;;;;9.15;2.53;;;;;;;;;;5076197;28;20448;-81
2022/11/28 05:48:19;;;;;;;9.27;2.42;;;;;;;;;;5076792;28;20024;-82
2022/11/28 05:50:45;;;;;;;2.42;2.05;;;;;;;;;;5079487;28;20028;-81
2022/11/28 05:53:11;;;;;;;6.30;2.15;;;;;;;;;;5096370;28;20027;-81
2022/11/28 05:55:38;;;;;;;8.63;2.42;;;;;;;;;;5075759;28;20028;-81
2022/11/28 05:58:04;;;;;;;11.75;2.70;;;;;;;;;;5074178;28;20038;-80
2022/11/28 06:00:30;;;;;;;7.57;2.47;;;;;;;;;;5072215;28;20084;-80
2022/11/28 06:02:57;;;;;;;5.50;2.15;;;;;;;;;;5077135;28;20024;-80
2022/11/28 06:05:23;;;;;;;7.60;3.00;;;;;;;;;;5070969;28;20032;-80
2022/11/28 06:07:49;;;;;;;6.22;2.50;;;;;;;;;;5075172;28;20024;-81
2022/11/28 06:10:15;;;;;;;13.63;3.20;;;;;;;;;;5076355;28;20033;-81
2022/11/28 06:12:42;;;;;;;6.00;2.45;;;;;;;;;;5074918;28;20024;-81
2022/11/28 06:15:08;;;;;;;8.27;3.03;;;;;;;;;;5076192;28;20039;-81
2022/11/28 06:17:34;;;;;;;3.20;2.60;;;;;;;;;;5074432;28;20662;-81
2022/11/28 06:20:00;;;;;;;11.25;2.35;;;;;;;;;;5074595;28;20028;-80
2022/11/28 06:22:26;;;;;;;6.30;2.20;;;;;;;;;;5075641;28;20028;-80
2022/11/28 06:24:53;;;;;;;10.05;3.22;;;;;;;;;;5073058;28;20167;-81
2022/11/28 06:27:19;;;;;;;3.13;2.10;;;;;;;;;;5074148;28;20305;-80
2022/11/28 06:29:45;;;;;;;7.35;2.47;;;;;;;;;;5079991;28;20091;-80
2022/11/28 06:32:12;;;;;;;2.58;1.98;;;;;;;;;;5079461;28;20032;-80
2022/11/28 06:34:38;;;;;;;5.45;2.25;;;;;;;;;;5081652;28;20107;-80
2022/11/28 06:37:04;;;;;;;8.18;2.38;;;;;;;;;;5067210;28;20039;-80
2022/11/28 06:39:30;;;;;;;4.05;2.28;;;;;;;;;;5074375;28;20032;-80
2022/11/28 06:41:56;;;;;;;4.05;2.00;;;;;;;;;;5074946;28;20458;-80
2022/11/28 06:44:23;;;;;;;5.97;3.13;;;;;;;;;;5059306;28;20025;-80
2022/11/28 06:46:49;;;;;;;5.18;2.00;;;;;;;;;;5063766;28;20585;-80
2022/11/28 06:49:15;;;;;;;8.18;2.72;;;;;;;;;;5081017;28;20032;-81
2022/11/28 06:51:41;;;;;;;4.00;2.13;;;;;;;;;;5079783;28;20040;-80
2022/11/28 06:54:08;;;;;;;4.72;2.17;;;;;;;;;;5079115;28;20107;-80
2022/11/28 06:56:34;;;;;;;3.33;2.40;;;;;;;;;;5081365;28;20028;-80
2022/11/28 06:59:00;;;;;;;4.18;2.67;;;;;;;;;;5073001;28;20032;-79
2022/11/28 07:01:27;;;;;;;8.82;3.00;;;;;;;;;;5066503;28;20023;-80
2022/11/28 07:03:54;;;;;;;4.95;2.00;;;;;;;;;;5069163;28;20025;-81
2022/11/28 07:06:21;;;;;;;3.70;1.83;;;;;;;;;;5073820;28;20028;-80
2022/11/28 07:08:47;;;;;;;8.30;2.88;;;;;;;;;;5070100;28;20099;-80
2022/11/28 07:11:17;;;;;;;8.48;3.20;;;;;;;;;;5057673;28;20383;-81
2022/11/28 07:13:47;;;;;;;4.75;2.40;;;;;;;;;;5078025;28;20055;-80
2022/11/28 07:16:14;;;;;;;6.93;2.58;;;;;;;;;;5074077;28;20502;-81
2022/11/28 07:18:41;;;;;;;5.57;2.58;;;;;;;;;;5076504;28;20055;-81
2022/11/28 07:21:07;;;;;;;1.90;1.65;;;;;;;;;;5056019;28;20064;-81
2022/11/28 07:23:33;;;;;;;3.35;2.22;;;;;;;;;;5071324;28;20391;-81
2022/11/28 07:26:00;;;;;;;4.40;2.00;;;;;;;;;;5091380;28;20021;-79
2022/11/28 07:28:27;;;;;;;4.00;2.00;;;;;;;;;;5067806;28;20029;-81
2022/11/28 07:31:04;;;;;;;9.25;2.65;;;;;;;;;;5080758;28;20379;-80
2022/11/28 07:33:31;;;;;;;6.93;2.70;;;;;;;;;;5077704;28;20054;-81
2022/11/28 07:36:01;;;;;;;3.83;1.95;;;;;;;;;;5071073;28;20084;-81
2022/11/28 07:38:27;;;;;;;7.78;3.10;;;;;;;;;;5081646;28;20040;-81
2022/11/28 07:40:53;;;;;;;6.03;2.40;;;;;;;;;;5074180;28;20390;-80
2022/11/28 07:43:19;;;;;;;5.90;2.30;;;;;;;;;;5079918;28;20054;-81
2022/11/28 07:45:45;;;;;;;3.58;2.20;;;;;;;;;;5063625;28;20040;-80
2022/11/28 07:48:11;;;;;;;5.88;2.25;;;;;;;;;;5082899;28;20029;-80
2022/11/28 07:50:38;;;;;;;6.30;2.35;;;;;;;;;;5064327;28;20502;-79
2022/11/28 07:53:04;;;;;;;6.07;2.10;;;;;;;;;;5057798;28;20028;-80
2022/11/28 07:55:30;;;;;;;5.10;2.10;;;;;;;;;;5072391;28;20037;-80
2022/11/28 07:57:56;;;;;;;3.42;1.80;;;;;;;;;;5062973;28;20025;-80
2022/11/28 08:00:23;;;;;;;5.03;1.90;;;;;;;;;;5069590;28;20038;-80
2022/11/28 08:02:49;;;;;;;8.23;2.45;;;;;;;;;;5079742;28;20016;-80
2022/11/28 08:05:15;;;;;;;6.50;2.22;;;;;;;;;;5077872;28;20017;-80
2022/11/28 08:07:41;;;;;;;5.55;2.38;;;;;;;;;;5078334;28;20581;-81
2022/11/28 08:10:08;;;;;;;6.43;1.90;;;;;;;;;;5062726;28;20036;-80
2022/11/28 08:12:34;;;;;;;6.30;2.70;;;;;;;;;;5049737;28;20063;-80
2022/11/28 08:15:00;;;;;;;6.85;2.40;;;;;;;;;;5075737;28;20095;-80
2022/11/28 08:17:30;;;;;;;4.35;2.35;;;;;;;;;;5074529;28;20044;-80
2022/11/28 08:19:56;;;;;;;8.73;2.58;;;;;;;;;;5080381;28;20033;-80
2022/11/28 08:22:22;;;;;;;7.93;2.53;;;;;;;;;;5096125;28;20024;-80
2022/11/28 08:24:48;;;;;;;3.97;1.70;;;;;;;;;;5078470;28;20043;-80
2022/11/28 08:27:14;;;;;;;7.53;2.15;;;;;;;;;;5074933;28;20029;-79
2022/11/28 08:29:40;;;;;;;5.20;2.30;;;;;;;;;;5079685;28;20035;-80
2022/11/28 08:32:06;;;;;;;7.05;2.47;;;;;;;;;;5072766;28;20127;-79
2022/11/28 08:34:32;;;;;;;8.27;2.90;;;;;;;;;;5067307;28;20094;-78
2022/11/28 08:36:58;;;;;;;3.22;1.90;;;;;;;;;;5079634;28;20029;-79
2022/11/28 08:39:24;;;;;;;3.95;2.10;;;;;;;;;;5077913;28;20061;-80
2022/11/28 08:41:50;;;;;;;4.57;2.70;;;;;;;;;;5078145;28;20020;-80
2022/11/28 08:44:16;;;;;;;3.35;2.15;;;;;;;;;;5081360;28;20024;-80
2022/11/28 08:46:45;;;;;;;5.50;2.30;;;;;;;;;;5085746;28;20278;-81
2022/11/28 08:49:15;;;;;;;10.13;3.15;;;;;;;;;;5079672;28;20079;-81
2022/11/28 08:51:41;;;;;;;5.35;2.22;;;;;;;;;;5083274;28;20044;-80
2022/11/28 08:54:07;;;;;;;7.10;2.35;;;;;;;;;;5081662;28;20038;-81
2022/11/28 08:56:33;;;;;;;10.05;2.83;;;;;;;;;;5082329;28;20032;-80
2022/11/28 08:59:00;;;;;;;5.20;2.33;;;;;;;;;;5080302;28;20028;-81
2022/11/28 09:01:26;;;;;;;6.70;2.38;;;;;;;;;;5086648;28;20079;-80
2022/11/28 09:03:53;;;;;;;7.00;2.53;;;;;;;;;;5070131;28;20036;-79
2022/11/28 09:06:20;;;;;;;9.02;2.33;;;;;;;;;;5082069;28;20042;-80
2022/11/28 09:08:46;;;;;;;8.55;2.72;;;;;;;;;;5081023;28;20070;-79
2022/11/28 09:11:14;;;;;;;9.52;3.15;;;;;;;;;;5085683;28;20029;-80
2022/11/28 09:13:44;;;;;;;6.70;2.30;;;;;;;;;;5075903;28;20029;-82
2022/11/28 09:16:11;;;;;;;10.43;2.97;;;;;;;;;;5084440;28;20525;-80
2022/11/28 09:18:37;;;;;;;5.80;2.30;;;;;;;;;;5069051;28;20088;-82
2022/11/28 09:21:07;;;;;;;7.13;2.53;;;;;;;;;;5095119;28;20028;-80
2022/11/28 09:23:34;;;;;;;4.85;2.38;;;;;;;;;;5081881;28;20055;-80
2022/11/28 09:26:00;;;;;;;6.93;2.63;;;;;;;;;;5070110;28;20021;-80
2022/11/28 09:28:27;;;;;;;5.53;2.25;;;;;;;;;;5078128;28;20058;-80
2022/11/28 09:31:03;;;;;;;7.70;2.72;;;;;;;;;;5083776;28;20024;-80
2022/11/28 09:33:29;;;;;;;8.20;2.85;;;;;;;;;;5084310;28;20039;-80
2022/11/28 09:35:57;;;;;;;5.05;2.42;;;;;;;;;;5086320;28;20229;-80
2022/11/28 09:38:23;;;;;;;7.10;2.72;;;;;;;;;;5066326;28;20059;-80
2022/11/28 09:40:49;;;;;;;4.18;2.60;;;;;;;;;;5078531;28;20036;-80
2022/11/28 09:43:31;;;;;;;3.97;2.40;;;;;;;;;;5073147;28;20021;-82
2022/11/28 09:45:58;;;;;;;5.35;2.42;;;;;;;;;;5079624;28;20048;-80
2022/11/28 09:48:27;;;;;;;5.82;2.80;;;;;;;;;;5056699;28;20039;-81
2022/11/28 09:50:55;;;;;;;5.47;2.33;;;;;;;;;;5074203;28;20035;-80
2022/11/28 09:53:30;;;;;;;4.40;2.00;;;;;;;;;;5071457;28;20024;-79
2022/11/28 09:55:59;;;;;;;5.05;2.30;;;;;;;;;;5073563;28;20071;-79
2022/11/28 09:58:44;;;;;;;3.10;2.10;;;;;;;;;;5064859;28;20036;-81
2022/11/28 10:01:10;;;;;;;5.40;2.43;;;;;;;;;;5072060;28;20063;-80
2022/11/28 10:03:36;;;;;;;6.30;3.05;;;;;;;;;;5076203;28;20465;-80
2022/11/28 10:06:08;;;;;;;4.13;2.47;;;;;;;;;;5081064;28;20028;-80
2022/11/28 10:08:43;;;;;;;6.85;2.35;;;;;;;;;;5081200;28;20052;-78
2022/11/28 10:11:09;;;;;;;3.28;2.30;;;;;;;;;;5077360;28;20040;-80
2022/11/28 10:13:35;;;;;;;4.18;2.05;;;;;;;;;;5074238;28;20096;-81
2022/11/28 10:16:09;;;;;;;5.55;2.40;;;;;;;;;;5079985;28;20024;-80
2022/11/28 10:18:47;;;;;;;5.57;2.33;;;;;;;;;;5084361;28;20091;-80
2022/11/28 10:21:22;;;;;;;9.93;2.33;;;;;;;;;;5077317;28;20059;-81
2022/11/28 10:23:50;;;;;;;6.25;2.75;;;;;;;;;;5082481;28;20055;-81
2022/11/28 10:26:36;;;;;;;6.00;2.70;;;;;;;;;;5096817;28;20024;-79
2022/11/28 10:29:17;;;;;;;8.02;2.60;;;;;;;;;;5076353;28;20076;-81
2022/11/28 10:31:44;;;;;;;26.00;3.97;;;;;;;;;;5085509;28;20028;-82
2022/11/28 10:34:24;;;;;;;6.30;2.50;;;;;;;;;;5080778;28;20028;-81
2022/11/28 10:36:54;;;;;;;4.95;2.92;;;;;;;;;;5078889;28;20033;-80
2022/11/28 10:39:20;;;;;;;10.65;3.63;;;;;;;;;;5074638;28;20079;-81
2022/11/28 10:42:10;;;;;;;6.43;4.57;;;;;;;;;;5088150;28;20020;-82
2022/11/28 10:44:57;;;;;;;6.82;3.58;;;;;;;;;;5067160;28;20041;-82
2022/11/28 10:47:34;;;;;;;9.75;5.05;;;;;;;;;;5063221;28;20104;-82
2022/11/28 10:50:11;;;;;;;10.43;6.82;;;;;;;;;;5087847;28;20043;-82
2022/11/28 10:52:43;;;;;;;6.18;4.43;;;;;;;;;;5078275;28;20013;-82
2022/11/28 10:55:21;;;;;;;4.68;3.05;;;;;;;;;;5082325;28;20016;-81
2022/11/28 10:58:06;;;;;;;3.42;2.33;;;;;;;;;;5068114;28;20043;-82
2022/11/28 11:00:33;;;;;;;3.78;2.65;;;;;;;;;;5077558;28;20064;-81
2022/11/28 11:03:01;;;;;;;4.78;2.63;;;;;;;;;;5084559;28;20029;-81
2022/11/28 11:05:28;;;;;;;3.83;2.28;;;;;;;;;;5076378;28;20121;-81
2022/11/28 11:07:56;;;;;;;2.88;2.10;;;;;;;;;;5101626;28;20024;-82
2022/11/28 11:10:31;;;;;;;3.45;2.00;;;;;;;;;;5076312;28;20093;-81
2022/11/28 11:12:57;;;;;;;8.30;3.17;;;;;;;;;;5090035;28;20025;-82
2022/11/28 11:15:34;;;;;;;4.15;2.50;;;;;;;;;;5076878;28;20040;-81
2022/11/28 11:18:03;;;;;;;3.58;2.70;;;;;;;;;;5077690;28;20059;-82
2022/11/28 11:20:30;;;;;;;2.00;1.80;;;;;;;;;;5082701;28;20039;-81
2022/11/28 11:23:00;;;;;;;4.75;2.00;;;;;;;;;;5088016;28;20031;-82
2022/11/28 11:25:31;;;;;;;2.63;2.05;;;;;;;;;;5085478;28;20052;-81
2022/11/28 11:28:02;;;;;;;3.63;2.30;;;;;;;;;;5082346;28;20058;-81
2022/11/28 11:30:28;;;;;;;4.30;2.30;;;;;;;;;;5071120;28;20032;-81
2022/11/28 11:32:55;;;;;;;4.20;2.67;;;;;;;;;;5094320;28;20041;-82
2022/11/28 11:35:23;;;;;;;7.43;3.28;;;;;;;;;;5101679;28;20036;-83
2022/11/28 11:37:49;;;;;;;3.00;2.53;;;;;;;;;;5089483;28;20036;-82
2022/11/28 11:40:18;;;;;;;5.45;3.25;;;;;;;;;;5097230;28;20016;-83
2022/11/28 11:42:51;;;;;;;6.80;3.53;;;;;;;;;;5097564;28;20063;-82
2022/11/28 11:45:37;;;;;;;5.65;3.20;;;;;;;;;;5103213;28;20047;-83
2022/11/28 11:48:03;;;;;;;5.57;3.38;;;;;;;;;;5093234;28;20009;-82
2022/11/28 11:50:31;;;;;;;5.43;3.88;;;;;;;;;;5077948;28;20095;-81
2022/11/28 11:53:02;;;;;;;4.72;2.88;;;;;;;;;;5089269;28;20029;-82
2022/11/28 11:55:30;;;;;;;5.20;3.30;;;;;;;;;;5085881;28;20029;-82
2022/11/28 11:57:57;;;;;;;4.40;2.90;;;;;;;;;;5079621;28;20044;-83
2022/11/28 12:00:35;;;;;;;4.50;3.47;;;;;;;;;;5079088;28;20020;-80
2022/11/28 12:03:11;;;;;;;6.07;3.80;;;;;;;;;;5086671;28;20084;-82
2022/11/28 12:05:46;;;;;;;6.20;3.85;;;;;;;;;;5087374;28;20041;-81
2022/11/28 12:08:16;;;;;;;4.70;3.90;;;;;;;;;;5085465;28;20036;-82
2022/11/28 12:10:50;;;;;;;5.50;3.88;;;;;;;;;;5088983;28;20023;-81
2022/11/28 12:13:19;;;;;;;6.05;4.55;;;;;;;;;;5085130;28;20687;-81
2022/11/28 12:15:45;;;;;;;5.72;3.80;;;;;;;;;;5083706;28;20145;-82
2022/11/28 12:18:14;;;;;;;7.97;4.68;;;;;;;;;;5089354;28;20039;-82
2022/11/28 12:20:43;;;;;;;6.68;4.63;;;;;;;;;;5085010;28;20028;-82
2022/11/28 12:23:21;;;;;;;8.63;3.55;;;;;;;;;;5087299;28;20024;-82
2022/11/28 12:25:53;;;;;;;5.05;3.95;;;;;;;;;;5068332;28;20029;-82
2022/11/28 12:28:42;;;;;;;7.68;4.43;;;;;;;;;;5069727;28;20047;-82
2022/11/28 12:31:11;;;;;;;4.43;3.00;;;;;;;;;;5077192;28;20033;-83
2022/11/28 12:33:52;;;;;;;4.80;3.70;;;;;;;;;;5091080;28;20022;-82
2022/11/28 12:36:24;;;;;;;6.03;4.38;;;;;;;;;;5088207;28;20043;-82
2022/11/28 12:38:50;;;;;;;7.13;5.18;;;;;;;;;;5078638;28;20040;-81
2022/11/28 12:41:35;;;;;;;7.30;5.45;;;;;;;;;;5081979;28;20033;-83
2022/11/28 12:44:13;;;;;;;6.57;4.13;;;;;;;;;;5084542;28;20025;-81
2022/11/28 12:47:18;;;;;;;4.78;3.65;;;;;;;;;;5108264;28;20024;-81
2022/11/28 12:50:03;;;;;;;6.38;3.30;;;;;;;;;;5029537;28;20037;-82
2022/11/28 12:52:48;;;;;;;5.43;3.20;;;;;;;;;;5026373;28;20044;-82
2022/11/28 12:55:25;;;;;;;6.72;4.18;;;;;;;;;;5080802;28;20043;-82
2022/11/28 12:57:52;;;;;;;5.10;2.80;;;;;;;;;;5071200;28;20017;-82
2022/11/28 13:00:20;;;;;;;4.13;3.45;;;;;;;;;;5076031;28;20025;-81
2022/11/28 13:03:08;;;;;;;4.25;2.67;;;;;;;;;;5078814;28;20028;-82
2022/11/28 13:05:53;;;;;;;4.85;2.67;;;;;;;;;;5085773;28;20098;-82
2022/11/28 13:08:19;;;;;;;2.97;2.50;;;;;;;;;;5076644;28;20017;-81
2022/11/28 13:11:24;;;;;;;3.38;2.30;;;;;;;;;;5081908;28;20036;-82
2022/11/28 13:13:55;;;;;;;3.92;2.35;;;;;;;;;;5021705;28;20086;-82
2022/11/28 13:16:29;;;;;;;3.72;2.58;;;;;;;;;;5010894;28;20045;-82
2022/11/28 13:19:04;;;;;;;3.25;2.45;;;;;;;;;;5061354;28;20048;-81
2022/11/28 13:21:59;;;;;;;3.22;2.53;;;;;;;;;;5088664;28;20390;-84
2022/11/28 13:24:33;;;;;;;3.90;2.50;;;;;;;;;;5068080;28;20045;-82
2022/11/28 13:27:08;;;;;;;6.40;2.72;;;;;;;;;;5091480;28;20020;-82
2022/11/28 13:29:42;;;;;;;4.32;2.53;;;;;;;;;;5086119;28;20035;-81
2022/11/28 13:32:10;;;;;;;4.13;2.67;;;;;;;;;;5076909;28;20021;-81
2022/11/28 13:34:37;;;;;;;4.00;2.90;;;;;;;;;;5088723;28;20043;-83
2022/11/28 13:37:03;;;;;;;5.72;3.00;;;;;;;;;;5093570;28;20074;-82
2022/11/28 13:39:42;;;;;;;4.00;2.90;;;;;;;;;;5081535;28;20024;-83
2022/11/28 13:42:17;;;;;;;8.45;3.60;;;;;;;;;;5079949;28;20032;-82
2022/11/28 13:44:50;;;;;;;9.27;5.07;;;;;;;;;;5084790;28;20024;-81
2022/11/28 13:47:22;;;;;;;19.02;10.30;;;;;;;;;;5085329;28;20510;-82
2022/11/28 13:49:48;;;;;;;14.10;8.65;;;;;;;;;;5080967;28;20028;-79
2022/11/28 13:52:17;;;;;;;11.32;7.00;;;;;;;;;;5070595;28;20122;-79
2022/11/28 13:54:53;;;;;;;6.57;4.32;;;;;;;;;;5073618;28;20020;-80
2022/11/28 13:57:19;;;;;;;10.60;6.88;;;;;;;;;;5081993;28;20025;-80
2022/11/28 14:00:06;;;;;;;5.70;4.07;;;;;;;;;;5067959;28;20066;-79
2022/11/28 14:02:35;;;;;;;5.70;4.55;;;;;;;;;;5072994;28;20037;-80
2022/11/28 14:05:02;;;;;;;11.38;8.98;;;;;;;;;;5053979;28;20036;-80
2022/11/28 14:07:32;;;;;;;5.90;3.88;;;;;;;;;;5055066;28;20036;-79
2022/11/28 14:10:02;;;;;;;18.70;12.25;;;;;;;;;;5068605;28;20029;-79
2022/11/28 14:12:28;;;;;;;14.40;10.75;;;;;;;;;;5066836;28;20028;-80
2022/11/28 14:15:13;;;;;;;30.95;22.55;;;;;;;;;;5071622;28;20037;-80
2022/11/28 14:17:45;;;;;;;19.00;15.07;;;;;;;;;;5053586;28;20088;-79
2022/11/28 14:20:30;;;;;;;32.05;22.98;;;;;;;;;;5052860;28;20032;-81
2022/11/28 14:23:02;;;;;;;12.20;6.80;;;;;;;;;;5049705;28;20032;-80
2022/11/28 14:25:30;;;;;;;10.10;7.20;;;;;;;;;;5055364;28;20506;-80
2022/11/28 14:28:15;;;;;;;5.32;3.75;;;;;;;;;;5085963;28;20059;-81
2022/11/28 14:30:42;;;;;;;6.07;4.50;;;;;;;;;;5057110;28;20041;-80
2022/11/28 14:33:15;;;;;;;8.32;4.43;;;;;;;;;;5051553;28;20086;-80
2022/11/28 14:35:50;;;;;;;8.05;4.05;;;;;;;;;;5062807;28;20035;-79
2022/11/28 14:38:34;;;;;;;7.72;5.60;;;;;;;;;;5058916;28;20021;-80
2022/11/28 14:41:03;;;;;;;6.32;3.72;;;;;;;;;;5051524;28;20025;-80
2022/11/28 14:43:33;;;;;;;7.13;4.13;;;;;;;;;;5058569;28;20065;-81
2022/11/28 14:46:12;;;;;;;5.72;3.33;;;;;;;;;;5058641;28;20111;-82
2022/11/28 14:48:40;;;;;;;4.90;2.72;;;;;;;;;;5086794;28;20025;-79
2022/11/28 14:51:07;;;;;;;11.20;4.57;;;;;;;;;;5055583;28;20025;-80
2022/11/28 14:53:37;;;;;;;4.50;3.33;;;;;;;;;;5090472;28;20037;-80
2022/11/28 14:56:13;;;;;;;5.22;4.22;;;;;;;;;;5052057;28;20085;-80
2022/11/28 14:58:39;;;;;;;6.47;3.90;;;;;;;;;;5048972;28;20029;-79